createdAt,value
2018-06-02T00:00:19.531Z,94.90
2018-06-02T00:02:47.546Z,95.00
2018-06-02T00:05:15.158Z,95.00
2018-06-02T00:07:42.796Z,94.70
2018-06-02T00:10:10.463Z,94.60
2018-06-02T00:12:38.742Z,94.70
2018-06-02T00:15:07.563Z,94.70
2018-06-02T00:17:35.584Z,94.60
2018-06-02T00:20:03.254Z,94.60
2018-06-02T00:22:30.884Z,94.90
2018-06-02T00:24:58.496Z,94.70
2018-06-02T00:27:26.140Z,94.60
2018-06-02T00:29:53.724Z,95.00
2018-06-02T00:32:21.363Z,94.90
2018-06-02T00:34:49.218Z,95.00
2018-06-02T00:37:16.841Z,94.90
2018-06-02T00:39:44.453Z,94.90
2018-06-02T00:42:12.916Z,95.00
2018-06-02T00:44:40.540Z,95.30
2018-06-02T00:47:08.147Z,95.40
2018-06-02T00:49:35.830Z,95.60
2018-06-02T00:52:04.214Z,95.10
2018-06-02T00:54:43.729Z,95.30
2018-06-02T00:57:13.016Z,95.20
2018-06-02T00:59:40.649Z,95.30
2018-06-02T01:02:08.240Z,95.30
2018-06-02T01:04:35.863Z,95.40
2018-06-02T01:07:03.890Z,95.60
2018-06-02T01:09:31.493Z,95.60
2018-06-02T01:11:59.505Z,95.40
2018-06-02T01:14:27.190Z,95.40
2018-06-02T01:16:54.852Z,95.30
2018-06-02T01:19:23.322Z,95.50
2018-06-02T01:21:50.946Z,95.60
2018-06-02T01:24:18.604Z,95.90
2018-06-02T01:26:46.246Z,96.00
2018-06-02T01:29:15.007Z,96.00
2018-06-02T01:31:43.396Z,96.00
2018-06-02T01:34:10.992Z,95.90
2018-06-02T01:36:38.569Z,96.00
2018-06-02T01:39:06.456Z,96.30
2018-06-02T01:41:34.061Z,96.10
2018-06-02T01:44:02.124Z,96.90
2018-06-02T01:46:31.015Z,97.00
2018-06-02T01:48:58.700Z,97.00
2018-06-02T01:51:26.370Z,96.90
2018-06-02T01:53:53.988Z,96.50
2018-06-02T01:58:55.537Z,96.50
2018-06-02T02:01:23.171Z,96.60
2018-06-02T02:03:50.759Z,96.90
2018-06-02T02:06:18.614Z,97.10
2018-06-02T02:08:47.222Z,97.10
2018-06-02T02:11:15.970Z,97.00
2018-06-02T02:13:43.556Z,96.80
2018-06-02T02:16:11.199Z,97.10
2018-06-02T02:18:38.810Z,96.90
2018-06-02T02:21:06.665Z,96.90
2018-06-02T02:23:35.117Z,96.70
2018-06-02T02:26:03.507Z,96.90
2018-06-02T02:28:31.081Z,97.20
2018-06-02T02:30:59.614Z,97.20
2018-06-02T02:33:27.563Z,97.70
2018-06-02T02:35:55.184Z,97.30
2018-06-02T02:38:23.282Z,96.90
2018-06-02T02:40:51.617Z,96.90
2018-06-02T02:43:20.197Z,97.50
2018-06-02T02:45:49.080Z,97.50
2018-06-02T02:50:50.715Z,97.70
2018-06-02T02:53:18.763Z,97.50
2018-06-02T02:55:46.921Z,97.50
2018-06-02T02:58:15.082Z,97.40
2018-06-02T03:00:42.682Z,97.80
2018-06-02T03:03:10.311Z,97.60
2018-06-02T03:05:37.907Z,97.80
2018-06-02T03:08:06.239Z,97.90
2018-06-02T03:10:34.733Z,97.80
2018-06-02T03:13:02.404Z,98.00
2018-06-02T03:15:30.743Z,98.10
2018-06-02T03:17:59.175Z,98.20
2018-06-02T03:20:26.968Z,98.40
2018-06-02T03:22:56.277Z,98.60
2018-06-02T03:25:23.949Z,98.60
2018-06-02T03:27:51.541Z,98.70
2018-06-02T03:30:19.778Z,98.50
2018-06-02T03:32:47.390Z,98.50
2018-06-02T03:35:15.217Z,98.70
2018-06-02T03:37:42.825Z,98.60
2018-06-02T03:40:10.464Z,98.10
2018-06-02T03:42:38.052Z,98.30
2018-06-02T03:45:05.638Z,98.20
2018-06-02T03:47:33.280Z,98.40
2018-06-02T03:50:01.277Z,99.10
2018-06-02T03:52:28.878Z,99.10
2018-06-02T03:54:56.491Z,99.40
2018-06-02T03:57:24.103Z,99.20
2018-06-02T03:59:51.741Z,99.20
2018-06-02T04:02:20.427Z,99.10
2018-06-02T04:04:48.029Z,98.80
2018-06-02T04:07:15.660Z,99.30
2018-06-02T04:09:43.294Z,99.40
2018-06-02T04:12:10.946Z,99.50
2018-06-02T04:14:38.602Z,99.60
2018-06-02T04:17:06.227Z,99.80
2018-06-02T04:19:33.908Z,99.50
2018-06-02T04:22:01.916Z,99.00
2018-06-02T04:24:29.628Z,99.00
2018-06-02T04:26:57.305Z,98.70
2018-06-02T04:29:24.963Z,98.60
2018-06-02T04:31:53.065Z,96.60
2018-06-02T04:34:20.699Z,96.60
2018-06-02T04:36:48.762Z,95.40
2018-06-02T04:39:16.391Z,95.40
2018-06-02T04:41:44.010Z,94.40
2018-06-02T04:44:12.019Z,94.80
2018-06-02T04:46:39.621Z,94.70
2018-06-02T04:49:07.642Z,94.60
2018-06-02T04:51:35.266Z,94.60
2018-06-02T04:54:03.325Z,94.90
2018-06-02T04:56:31.834Z,95.30
2018-06-02T04:58:59.454Z,95.40
2018-06-02T05:01:27.112Z,95.50
2018-06-02T05:03:55.210Z,95.40
2018-06-02T05:06:23.218Z,95.70
2018-06-02T05:08:50.866Z,95.70
2018-06-02T05:11:18.498Z,95.60
2018-06-02T05:13:46.518Z,94.60
2018-06-02T05:16:14.213Z,94.60
2018-06-02T05:18:41.908Z,94.50
2018-06-02T05:21:10.034Z,94.70
2018-06-02T05:23:37.688Z,94.80
2018-06-02T05:26:05.299Z,94.50
2018-06-02T05:28:33.369Z,95.40
2018-06-02T05:31:01.469Z,96.00
2018-06-02T05:33:29.114Z,96.00
2018-06-02T05:35:57.208Z,96.10
2018-06-02T05:38:24.977Z,96.10
2018-06-02T05:40:52.661Z,96.20
2018-06-02T05:43:20.322Z,96.00
2018-06-02T05:45:47.964Z,96.40
2018-06-02T05:48:15.602Z,96.10
2018-06-02T05:53:17.093Z,96.20
2018-06-02T05:55:44.760Z,96.10
2018-06-02T05:58:12.477Z,95.60
2018-06-02T06:00:40.050Z,95.60
2018-06-02T06:03:07.716Z,95.00
2018-06-02T06:05:35.434Z,95.00
2018-06-02T06:08:03.124Z,94.20
2018-06-02T06:10:31.175Z,93.70
2018-06-02T06:12:58.841Z,93.70
2018-06-02T06:15:26.487Z,93.30
2018-06-02T06:17:54.091Z,90.20
2018-06-02T06:20:22.202Z,88.30
2018-06-02T06:22:49.822Z,88.30
2018-06-02T06:25:17.891Z,87.60
2018-06-02T06:27:45.972Z,86.10
2018-06-02T06:30:13.630Z,86.10
2018-06-02T06:32:41.306Z,86.00
2018-06-02T06:35:09.014Z,85.90
2018-06-02T06:37:36.673Z,82.70
2018-06-02T06:40:04.292Z,83.70
2018-06-02T06:42:31.996Z,83.90
2018-06-02T06:44:59.660Z,82.90
2018-06-02T06:47:28.333Z,82.20
2018-06-02T06:49:56.004Z,82.70
2018-06-02T06:52:23.667Z,83.20
2018-06-02T06:54:51.308Z,81.90
2018-06-02T06:57:18.984Z,80.20
2018-06-02T06:59:46.635Z,80.60
2018-06-02T07:02:14.307Z,79.50
2018-06-02T07:04:41.952Z,80.20
2018-06-02T07:07:09.610Z,81.10
2018-06-02T07:09:37.318Z,79.50
2018-06-02T07:12:05.009Z,78.60
2018-06-02T07:14:32.654Z,78.30
2018-06-02T07:17:00.682Z,78.00
2018-06-02T07:19:30.424Z,78.00
2018-06-02T07:21:58.241Z,76.40
2018-06-02T07:24:25.949Z,76.50
2018-06-02T07:26:53.611Z,78.30
2018-06-02T07:31:55.381Z,79.40
2018-06-02T07:34:23.046Z,78.90
2018-06-02T07:36:50.720Z,79.80
2018-06-02T07:39:18.676Z,80.30
2018-06-02T07:41:49.762Z,80.60
2018-06-02T07:44:17.375Z,79.90
2018-06-02T07:46:44.945Z,79.90
2018-06-02T07:49:13.129Z,80.30
2018-06-02T07:51:44.552Z,77.70
2018-06-02T07:54:13.026Z,77.70
2018-06-02T08:05:21.793Z,73.30
2018-06-02T08:07:52.360Z,71.90
2018-06-02T08:10:24.800Z,73.00
2018-06-02T08:15:54.126Z,74.10
2018-06-02T08:18:23.895Z,74.50
2018-06-02T08:20:54.139Z,73.30
2018-06-02T08:23:21.760Z,72.90
2018-06-02T08:25:49.827Z,71.30
2018-06-02T08:28:17.542Z,71.30
2018-06-02T08:30:46.316Z,71.80
2018-06-02T08:33:17.708Z,71.40
2018-06-02T08:35:48.767Z,72.90
2018-06-02T08:38:22.219Z,73.10
2018-06-02T08:40:55.944Z,71.10
2018-06-02T08:43:30.678Z,71.10
2018-06-02T08:48:52.773Z,72.50
2018-06-02T08:51:20.642Z,71.30
2018-06-02T08:56:31.077Z,69.90
2018-06-02T08:59:16.936Z,70.80
2018-06-02T09:01:47.080Z,72.30
2018-06-02T09:04:21.967Z,72.50
2018-06-02T09:07:08.303Z,72.80
2018-06-02T09:09:38.608Z,73.90
2018-06-02T09:42:24.230Z,74.90
2018-06-02T09:44:51.814Z,74.90
2018-06-02T09:56:11.545Z,75.40
2018-06-02T10:01:12.870Z,70.90
2018-06-02T10:03:40.528Z,68.90
2018-06-02T10:06:08.273Z,69.40
2018-06-02T10:20:42.919Z,62.40
2018-06-02T10:29:17.906Z,65.10
2018-06-02T10:31:46.286Z,64.60
2018-06-02T10:34:14.050Z,66.00
2018-06-02T10:36:42.126Z,65.70
2018-06-02T10:39:10.567Z,65.70
2018-06-02T10:41:38.196Z,64.30
2018-06-02T10:44:06.185Z,63.40
2018-06-02T10:46:34.573Z,63.40
2018-06-02T10:49:05.835Z,63.20
2018-06-02T10:51:43.497Z,63.60
2018-06-02T10:54:14.159Z,64.30
2018-06-02T10:56:42.532Z,64.80
2018-06-02T10:59:10.614Z,64.80
2018-06-02T11:04:14.210Z,66.40
2018-06-02T11:06:41.840Z,65.10
2018-06-02T11:09:09.915Z,65.20
2018-06-02T11:11:37.569Z,65.20
2018-06-02T11:14:06.560Z,64.40
2018-06-02T11:16:34.503Z,65.60
2018-06-02T11:19:03.259Z,65.50
2018-06-02T11:21:33.246Z,64.80
2018-06-02T11:24:01.277Z,62.70
2018-06-02T11:26:28.980Z,62.70
2018-06-02T11:28:56.644Z,64.50
2018-06-02T11:31:25.314Z,64.50
2018-06-02T11:33:53.427Z,64.10
2018-06-02T11:36:21.071Z,64.10
2018-06-02T11:38:51.208Z,61.60
2018-06-02T11:41:18.822Z,62.80
2018-06-02T11:43:47.103Z,57.30
2018-06-02T11:46:35.005Z,57.10
2018-06-02T11:55:40.448Z,58.60
2018-06-02T11:58:46.678Z,59.90
2018-06-02T12:01:29.832Z,58.40
2018-06-02T12:03:58.333Z,60.50
2018-06-02T12:06:31.333Z,62.90
2018-06-02T12:11:50.604Z,65.30
2018-06-02T12:17:21.201Z,66.10
2018-06-02T12:20:00.234Z,65.70
2018-06-02T12:25:45.051Z,65.00
2018-06-02T14:03:32.908Z,52.40
2018-06-02T14:06:22.837Z,51.40
2018-06-02T14:08:50.516Z,50.90
2018-06-02T14:49:37.436Z,53.60
2018-06-02T17:35:53.506Z,61.40
2018-06-02T17:38:29.105Z,64.50
2018-06-02T17:44:17.400Z,66.40
2018-06-02T17:46:54.527Z,66.40
2018-06-02T17:49:28.292Z,68.60
2018-06-02T17:57:26.016Z,72.00
2018-06-02T17:59:57.585Z,73.30
2018-06-02T18:02:36.115Z,73.30
2018-06-02T18:15:46.136Z,76.10
2018-06-02T18:18:25.121Z,77.70
2018-06-02T18:21:06.569Z,78.40
2018-06-02T18:26:24.710Z,79.10
2018-06-02T18:35:01.737Z,79.10
2018-06-02T18:37:59.720Z,79.00
2018-06-02T18:40:51.037Z,79.10
2018-06-02T18:46:28.064Z,79.80
2018-06-02T18:49:09.553Z,80.00
2018-06-02T18:51:44.024Z,80.00
2018-06-02T19:21:26.744Z,83.90
2018-06-02T19:23:55.584Z,84.30
2018-06-02T19:26:23.179Z,84.80
2018-06-02T19:28:57.147Z,85.10
2018-06-02T19:31:25.243Z,85.40
2018-06-02T19:33:53.383Z,86.00
2018-06-02T19:36:21.311Z,86.30
2018-06-02T19:38:48.912Z,86.70
2018-06-02T19:41:16.798Z,86.90
2018-06-02T19:43:44.855Z,87.10
2018-06-02T19:46:12.937Z,87.30
2018-06-02T19:48:41.152Z,87.50
2018-06-02T19:51:08.908Z,87.50
2018-06-02T19:53:36.645Z,87.70
2018-06-02T19:56:04.450Z,87.90
2018-06-02T19:58:37.292Z,88.20
2018-06-02T20:01:15.506Z,88.30
2018-06-02T20:03:46.845Z,88.60
2018-06-02T20:06:17.511Z,88.80
2018-06-02T20:08:47.499Z,88.90
2018-06-02T20:11:15.752Z,89.10
2018-06-02T20:13:43.614Z,89.00
2018-06-02T20:16:18.404Z,89.10
2018-06-02T20:18:50.977Z,89.00
2018-06-02T20:21:37.029Z,89.10
2018-06-02T20:24:06.425Z,89.20
2018-06-02T20:32:12.407Z,90.40
2018-06-02T20:34:44.210Z,91.00
2018-06-02T20:37:18.968Z,91.30
2018-06-02T20:39:47.207Z,90.90
2018-06-02T20:42:24.628Z,90.90
2018-06-02T20:44:57.643Z,91.30
2018-06-02T20:47:29.319Z,91.90
2018-06-02T20:49:56.943Z,92.50
2018-06-02T20:52:31.279Z,92.90
2018-06-02T20:55:00.688Z,93.20
2018-06-02T20:57:28.432Z,93.70
2018-06-02T20:59:56.121Z,93.70
2018-06-02T21:05:15.257Z,93.90
2018-06-02T21:07:42.948Z,93.90
2018-06-02T21:10:30.723Z,94.30
2018-06-02T21:13:01.035Z,94.70
2018-06-02T21:15:33.438Z,94.90
2018-06-02T21:18:03.255Z,94.90
2018-06-02T21:20:33.241Z,94.80
2018-06-02T21:23:01.250Z,95.10
2018-06-02T21:25:30.507Z,95.10
2018-06-02T21:28:04.472Z,95.40
2018-06-02T21:30:36.379Z,95.40
2018-06-02T21:33:08.596Z,95.50
2018-06-02T21:35:36.243Z,95.60
2018-06-02T21:38:07.025Z,95.70
2018-06-02T21:40:37.910Z,95.80
2018-06-02T21:43:05.831Z,96.10
2018-06-02T21:45:33.411Z,96.30
2018-06-02T21:48:01.133Z,96.50
2018-06-02T21:50:29.905Z,96.60
2018-06-02T21:52:57.724Z,96.60
2018-06-02T21:55:27.599Z,96.50
2018-06-02T21:57:55.470Z,96.40
2018-06-02T22:00:23.278Z,96.60
2018-06-02T22:02:50.884Z,96.60
2018-06-02T22:05:19.139Z,96.30
2018-06-02T22:07:47.609Z,96.20
2018-06-02T22:10:15.629Z,96.10
2018-06-02T22:12:45.557Z,96.10
2018-06-02T22:15:13.137Z,96.20
2018-06-02T22:17:40.794Z,96.20
2018-06-02T22:20:08.830Z,96.10
2018-06-02T22:22:37.308Z,95.40
2018-06-02T22:25:04.893Z,95.10
2018-06-02T22:27:32.476Z,94.10
2018-06-02T22:30:01.761Z,93.40
2018-06-02T22:32:29.332Z,93.40
2018-06-02T22:34:58.579Z,93.00
2018-06-02T22:37:28.961Z,93.00
2018-06-02T22:39:56.927Z,92.60
2018-06-02T22:42:24.701Z,92.60
2018-06-02T22:44:52.634Z,93.20
2018-06-02T22:47:21.107Z,93.40
2018-06-02T22:49:48.719Z,93.60
2018-06-02T22:52:17.438Z,94.00
2018-06-02T22:54:44.997Z,93.30
2018-06-02T22:57:12.583Z,93.20
2018-06-02T22:59:40.543Z,93.10
2018-06-02T23:02:08.183Z,93.10
2018-06-02T23:04:37.151Z,93.00
2018-06-02T23:07:07.915Z,93.10
2018-06-02T23:09:48.187Z,92.90
2018-06-02T23:12:16.001Z,92.90
2018-06-02T23:14:44.030Z,92.70
2018-06-02T23:17:12.394Z,92.70
2018-06-02T23:19:41.790Z,92.90
2018-06-02T23:22:09.697Z,93.10
2018-06-02T23:24:37.777Z,93.30
2018-06-02T23:27:05.887Z,93.70
2018-06-02T23:29:34.430Z,94.00
2018-06-02T23:32:02.515Z,94.00
2018-06-02T23:34:30.711Z,94.30
2018-06-02T23:37:00.021Z,95.40
2018-06-02T23:39:28.239Z,95.40
2018-06-02T23:42:05.799Z,95.80
2018-06-02T23:44:33.891Z,96.40
2018-06-02T23:47:02.540Z,96.70
2018-06-02T23:49:30.798Z,96.90
2018-06-02T23:51:59.036Z,97.20
2018-06-02T23:54:30.861Z,97.40
2018-06-02T23:56:58.836Z,98.10
2018-06-02T23:59:26.759Z,98.60
